Time;durP1;ratioP1;P1;durP2;ratioP2;P2;SDS_P1;SDS_P2;PMS_P1;PMS_P2;Temp;Humidity;BMP_temperature;BMP_pressure;BME280_temperature;BME280_humidity;BME280_pressure;Samples;Min_cycle;Max_cycle;Signal;HPM_P1;HPM_P2
2020/12/12 00:01:43;;;;;;;18.07;9.60;;;;;;;3.20;78.87;97545.30;125536;1095;65109;-82
2020/12/12 00:04:09;;;;;;;20.60;10.15;;;;;;;3.19;78.46;97542.78;125466;1095;65208;-84
2020/12/12 00:06:36;;;;;;;20.35;10.25;;;;;;;3.16;78.87;97537.69;125203;1095;65329;-82
2020/12/12 00:09:03;;;;;;;17.77;9.87;;;;;;;3.13;78.37;97538.75;125525;1095;65168;-84
2020/12/12 00:11:29;;;;;;;23.60;11.13;;;;;;;3.11;78.91;97535.34;125534;1095;65270;-83
2020/12/12 00:13:56;;;;;;;26.77;11.63;;;;;;;3.12;79.26;97538.86;125260;1095;65155;-82
2020/12/12 00:16:22;;;;;;;26.87;12.43;;;;;;;3.15;78.83;97533.36;125523;1095;65246;-82
2020/12/12 00:18:49;;;;;;;25.60;12.53;;;;;;;3.17;79.22;97537.58;125314;1096;65115;-83
2020/12/12 00:21:21;;;;;;;27.80;13.30;;;;;;;3.24;78.92;97538.02;125315;1096;65262;-83
2020/12/12 00:23:48;;;;;;;34.83;15.90;;;;;;;3.28;79.37;97544.79;125306;1095;65284;-84
2020/12/12 00:26:21;;;;;;;29.87;15.63;;;;;;;3.31;79.09;97539.33;125297;1096;65224;-83
2020/12/12 00:28:48;;;;;;;34.80;15.33;;;;;;;3.30;78.33;97548.16;125551;1095;65118;-86
2020/12/12 00:31:16;;;;;;;35.65;15.55;;;;;;;3.25;78.53;97548.48;125579;1095;65159;-83
2020/12/12 00:33:43;;;;;;;32.27;14.93;;;;;;;3.24;78.65;97545.93;125531;1095;65185;-85
2020/12/12 00:36:09;;;;;;;35.55;15.05;;;;;;;3.21;78.93;97543.51;125524;1095;65140;-84
2020/12/12 00:38:36;;;;;;;32.30;15.03;;;;;;;3.19;78.50;97545.41;125565;1095;65266;-81
2020/12/12 00:41:04;;;;;;;38.28;15.18;;;;;;;3.14;78.78;97540.44;125333;1096;65249;-84
2020/12/12 00:43:30;;;;;;;32.77;14.10;;;;;;;3.11;79.03;97542.41;125546;1095;65246;-83
2020/12/12 00:45:57;;;;;;;26.53;12.30;;;;;;;3.09;78.60;97542.52;125533;1096;65133;-83
2020/12/12 00:48:23;;;;;;;26.00;11.70;;;;;;;3.09;78.29;97544.31;125486;1095;65242;-82
2020/12/12 00:50:49;;;;;;;24.63;11.63;;;;;;;3.11;78.58;97547.69;125602;1095;65137;-87
2020/12/12 00:53:16;;;;;;;25.05;11.65;;;;;;;3.12;79.04;97539.70;125293;1096;65203;-84
2020/12/12 00:55:42;;;;;;;23.03;11.23;;;;;;;3.15;78.66;97541.28;125521;1095;65134;-86
2020/12/12 00:58:09;;;;;;;17.47;10.00;;;;;;;3.18;79.11;97548.97;125552;1095;65172;-83
2020/12/12 01:00:36;;;;;;;19.60;10.57;;;;;;;3.19;78.27;97550.69;125537;1095;65258;-82
2020/12/12 01:03:03;;;;;;;18.67;10.97;;;;;;;3.18;78.75;97539.30;125525;1095;65705;-82
2020/12/12 01:05:33;;;;;;;19.40;11.40;;;;;;;3.17;78.45;97548.13;125590;1095;65246;-82
2020/12/12 01:08:00;;;;;;;25.15;11.95;;;;;;;3.15;78.71;97549.19;125590;1095;65136;-83
2020/12/12 01:10:28;;;;;;;19.15;11.65;;;;;;;3.13;78.90;97543.18;125551;1095;65150;-84
2020/12/12 01:12:54;;;;;;;21.90;12.47;;;;;;;3.10;79.28;97538.09;125536;1095;65246;-83
2020/12/12 01:15:21;;;;;;;20.90;11.67;;;;;;;3.07;78.55;97538.31;125297;1096;65281;-82
2020/12/12 01:17:49;;;;;;;21.63;11.77;;;;;;;3.05;78.68;97529.63;125501;1095;65201;-83
2020/12/12 01:20:15;;;;;;;22.37;12.00;;;;;;;3.02;78.81;97527.21;125521;1095;65108;-84
2020/12/12 01:22:41;;;;;;;21.43;11.53;;;;;;;3.00;78.62;97534.39;125534;1096;65176;-82
2020/12/12 01:25:07;;;;;;;23.75;12.45;;;;;;;3.00;78.63;97532.59;125507;1095;65220;-82
2020/12/12 01:27:34;;;;;;;26.47;12.80;;;;;;;3.05;78.23;97535.75;125504;1095;65258;-86
2020/12/12 01:30:00;;;;;;;20.87;11.83;;;;;;;3.09;78.55;97539.05;125538;1095;65249;-85
2020/12/12 01:32:26;;;;;;;18.73;11.37;;;;;;;3.12;79.00;97542.34;125589;1095;65131;-83
2020/12/12 01:34:53;;;;;;;22.30;12.90;;;;;;;3.16;78.99;97540.33;125543;1095;65111;-82
2020/12/12 01:37:19;;;;;;;23.43;12.43;;;;;;;3.18;79.03;97543.70;125504;1095;65243;-86
2020/12/12 01:39:45;;;;;;;24.13;13.70;;;;;;;3.18;78.74;97535.78;125512;1095;65221;-82
2020/12/12 01:42:12;;;;;;;25.63;13.50;;;;;;;3.16;78.85;97540.33;125493;1095;65140;-85
2020/12/12 01:44:39;;;;;;;22.00;13.15;;;;;;;3.14;78.88;97531.67;125364;1096;65095;-84
2020/12/12 01:47:06;;;;;;;26.33;15.23;;;;;;;3.13;78.56;97532.63;125566;1095;65230;-82
2020/12/12 01:49:32;;;;;;;27.70;15.20;;;;;;;3.10;78.37;97523.11;125498;1095;65329;-88
2020/12/12 01:51:59;;;;;;;24.23;14.43;;;;;;;3.08;78.68;97525.02;125514;1095;65245;-83
2020/12/12 01:54:26;;;;;;;23.65;12.78;;;;;;;3.08;78.84;97522.38;125526;1095;65162;-83
2020/12/12 01:56:54;;;;;;;23.37;11.87;;;;;;;3.09;78.53;97526.70;125549;1096;65223;-83
2020/12/12 01:59:21;;;;;;;17.60;11.30;;;;;;;3.12;78.75;97523.03;125418;1095;65192;-85
2020/12/12 02:01:54;;;;;;;18.93;11.73;;;;;;;3.16;78.54;97521.86;125343;1095;65150;-82
2020/12/12 02:04:24;;;;;;;23.90;14.20;;;;;;;3.18;78.83;97519.95;125512;1096;65280;-85
2020/12/12 02:06:52;;;;;;;27.57;17.03;;;;;;;3.19;78.63;97521.67;125600;1095;65243;-85
2020/12/12 02:09:18;;;;;;;29.10;17.43;;;;;;;3.18;78.67;97517.31;125604;1095;65143;-84
2020/12/12 02:11:45;;;;;;;34.10;18.57;;;;;;;3.14;78.25;97513.21;125289;1095;65275;-85
2020/12/12 02:14:11;;;;;;;28.43;17.83;;;;;;;3.11;78.71;97518.67;125485;1096;65289;-84
2020/12/12 02:17:11;;;;;;;32.93;18.37;;;;;;;3.09;78.99;97517.94;125515;1096;65166;-82
2020/12/12 02:19:38;;;;;;;28.23;16.07;;;;;;;3.08;78.43;97526.80;125258;1098;65430;-85
2020/12/12 02:22:07;;;;;;;24.20;13.93;;;;;;;3.09;79.14;97523.22;125326;1098;65083;-87
2020/12/12 02:24:33;;;;;;;24.60;13.93;;;;;;;3.10;79.02;97519.62;125215;1098;65130;-89
2020/12/12 02:27:05;;;;;;;22.37;13.53;;;;;;;3.11;79.00;97522.16;125182;1098;65339;-84
2020/12/12 02:32:08;;;;;;;39.00;20.33;;;;;;;3.11;79.08;97523.95;125241;1098;65124;-83
2020/12/12 02:34:34;;;;;;;69.03;31.63;;;;;;;3.02;79.03;97521.94;125253;1098;65249;-87
2020/12/12 02:37:01;;;;;;;70.55;35.75;;;;;;;2.86;78.45;97528.23;125263;1099;65322;-85
2020/12/12 02:39:27;;;;;;;81.70;37.07;;;;;;;2.68;78.62;97534.69;125182;1098;65091;-84
2020/12/12 02:41:54;;;;;;;89.23;39.50;;;;;;;2.51;78.09;97527.02;125183;1098;65147;-84
2020/12/12 02:44:20;;;;;;;84.30;38.03;;;;;;;2.34;78.28;97531.55;125262;1098;65153;-81
2020/12/12 02:46:46;;;;;;;89.23;37.83;;;;;;;2.14;78.28;97543.34;125231;1098;65334;-82
2020/12/12 02:49:13;;;;;;;85.43;39.10;;;;;;;2.02;78.14;97541.46;125179;1098;65195;-87
2020/12/12 02:51:41;;;;;;;87.55;38.50;;;;;;;1.91;78.50;97538.67;125201;1098;65146;-84
2020/12/12 02:54:07;;;;;;;79.00;36.45;;;;;;;1.85;78.52;97537.25;125220;1098;66669;-84
2020/12/12 02:56:34;;;;;;;95.73;42.13;;;;;;;1.83;78.86;97535.63;125319;1096;65223;-88
2020/12/12 02:59:01;;;;;;;88.43;40.03;;;;;;;1.85;79.35;97531.98;125312;1095;65203;-83
2020/12/12 03:01:27;;;;;;;87.47;41.37;;;;;;;1.84;78.77;97530.27;125521;1095;65141;-83
2020/12/12 03:03:54;;;;;;;91.93;41.90;;;;;;;1.85;78.88;97531.14;125234;1096;65056;-85
2020/12/12 03:06:20;;;;;;;83.10;38.70;;;;;;;1.80;78.87;97535.84;125271;1095;65144;-82
2020/12/12 03:08:46;;;;;;;92.30;38.65;;;;;;;1.71;78.73;97526.70;125334;1096;65175;-82
2020/12/12 03:11:13;;;;;;;95.23;39.53;;;;;;;1.65;78.88;97526.22;125300;1095;65217;-87
2020/12/12 03:13:39;;;;;;;132.13;47.43;;;;;;;1.69;79.24;97527.73;125589;1096;65185;-83
2020/12/12 03:16:06;;;;;;;88.40;38.25;;;;;;;1.78;79.33;97525.41;125299;1096;65220;-83
2020/12/12 03:18:32;;;;;;;78.67;34.77;;;;;;;1.82;79.29;97524.27;125261;1096;65281;-86
2020/12/12 03:20:59;;;;;;;76.97;36.50;;;;;;;1.85;79.24;97523.25;125559;1096;65134;-82
2020/12/12 03:23:25;;;;;;;98.60;38.70;;;;;;;1.82;78.93;97524.27;125571;1095;65265;-83
2020/12/12 03:25:51;;;;;;;95.20;41.95;;;;;;;1.76;78.63;97524.63;125297;1095;65162;-88
2020/12/12 03:28:18;;;;;;;88.23;41.03;;;;;;;1.67;78.54;97534.89;125320;1096;65317;-83
2020/12/12 03:30:44;;;;;;;85.73;40.30;;;;;;;1.57;78.68;97529.31;125305;1096;65150;-87
2020/12/12 03:33:10;;;;;;;85.80;39.23;;;;;;;1.49;78.59;97531.57;125554;1095;65108;-82
2020/12/12 03:35:38;;;;;;;83.92;38.10;;;;;;;1.40;78.60;97532.98;125527;1095;65208;-84
2020/12/12 03:38:06;;;;;;;86.03;40.63;;;;;;;1.26;78.48;97536.40;125525;1095;65143;-83
2020/12/12 03:40:33;;;;;;;91.97;44.40;;;;;;;1.18;78.97;97541.27;125485;1096;65277;-84
2020/12/12 03:43:00;;;;;;;95.70;43.53;;;;;;;1.13;78.96;97543.31;125527;1095;65173;-83
2020/12/12 03:45:26;;;;;;;95.63;44.97;;;;;;;1.09;79.31;97547.08;125525;1095;65217;-83
2020/12/12 03:47:53;;;;;;;95.63;43.80;;;;;;;1.04;78.81;97541.23;125578;1095;65172;-88
2020/12/12 03:50:27;;;;;;;98.47;44.97;;;;;;;0.98;78.84;97536.33;125522;1095;65153;-85
2020/12/12 03:52:57;;;;;;;92.97;42.97;;;;;;;0.93;79.14;97543.62;125498;1095;65169;-84
2020/12/12 03:55:24;;;;;;;96.30;44.70;;;;;;;0.89;78.89;97548.23;125349;1096;65018;-84
2020/12/12 03:57:50;;;;;;;92.63;41.60;;;;;;;0.91;78.67;97540.24;125510;1095;65203;-84
2020/12/12 04:00:17;;;;;;;87.80;42.80;;;;;;;0.92;78.96;97553.29;125508;1095;65108;-84
2020/12/12 04:02:43;;;;;;;96.37;45.00;;;;;;;0.93;78.78;97544.47;125501;1095;65265;-84
2020/12/12 04:05:10;;;;;;;101.20;45.57;;;;;;;0.96;78.80;97552.20;125538;1095;65293;-86
2020/12/12 04:07:37;;;;;;;98.70;42.55;;;;;;;0.99;79.32;97553.78;125546;1096;65232;-82
2020/12/12 04:10:05;;;;;;;92.47;44.03;;;;;;;0.99;79.27;97543.27;125302;1096;65150;-84
2020/12/12 04:12:31;;;;;;;94.57;42.13;;;;;;;1.04;79.32;97549.12;125568;1096;65200;-84
2020/12/12 04:14:57;;;;;;;93.47;42.97;;;;;;;1.07;79.17;97552.40;125565;1095;65079;-82
2020/12/12 04:17:24;;;;;;;88.17;40.77;;;;;;;1.07;79.14;97548.92;125293;1095;65243;-85
2020/12/12 04:19:50;;;;;;;93.30;42.97;;;;;;;1.04;78.63;97546.48;125564;1095;65147;-84
2020/12/12 04:22:17;;;;;;;103.62;46.00;;;;;;;1.06;78.77;97547.23;125332;1096;65198;-83
2020/12/12 04:24:43;;;;;;;100.33;43.87;;;;;;;1.09;79.10;97549.70;125603;1095;65136;-82
2020/12/12 04:27:09;;;;;;;98.60;43.07;;;;;;;1.10;79.95;97554.02;125327;1095;65234;-84
2020/12/12 04:29:36;;;;;;;100.90;44.07;;;;;;;1.10;78.84;97550.55;125515;1095;65246;-85
2020/12/12 04:32:02;;;;;;;89.73;41.23;;;;;;;1.07;78.87;97546.30;125343;1096;65249;-82
2020/12/12 04:34:28;;;;;;;90.23;38.27;;;;;;;1.06;79.35;97545.45;125292;1096;65191;-84
2020/12/12 04:36:54;;;;;;;88.63;41.67;;;;;;;1.08;79.32;97547.98;125575;1095;65144;-83
2020/12/12 04:39:21;;;;;;;78.67;37.93;;;;;;;1.13;79.02;97537.20;125487;1095;65184;-86
2020/12/12 04:41:47;;;;;;;91.27;42.37;;;;;;;1.13;79.01;97545.94;125293;1095;65140;-82
2020/12/12 04:44:14;;;;;;;95.83;43.07;;;;;;;1.13;79.04;97540.69;125583;1096;65230;-82
2020/12/12 04:46:41;;;;;;;101.60;44.60;;;;;;;1.11;79.09;97544.34;125580;1094;65136;-86
2020/12/12 04:49:07;;;;;;;96.13;42.50;;;;;;;1.12;79.19;97539.00;125314;1096;65153;-82
2020/12/12 04:51:34;;;;;;;94.35;41.15;;;;;;;1.13;79.28;97539.84;125557;1095;65214;-84
2020/12/12 04:54:02;;;;;;;93.70;40.00;;;;;;;1.15;78.96;97540.62;125488;1095;65181;-83
2020/12/12 04:56:35;;;;;;;87.10;40.10;;;;;;;1.14;79.18;97536.27;125517;1095;65137;-85
2020/12/12 04:59:04;;;;;;;88.17;42.13;;;;;;;1.15;79.28;97538.83;125568;1095;65166;-85
2020/12/12 05:01:32;;;;;;;95.70;42.30;;;;;;;1.16;79.28;97547.56;125622;1095;65322;-87
2020/12/12 05:04:02;;;;;;;93.63;41.80;;;;;;;1.16;78.96;97545.78;125319;1096;65225;-83
2020/12/12 05:06:31;;;;;;;99.90;42.30;;;;;;;1.14;79.47;97542.38;125550;1096;65255;-83
2020/12/12 05:08:57;;;;;;;97.00;41.80;;;;;;;1.15;79.63;97554.61;125273;1095;65230;-84
2020/12/12 05:11:24;;;;;;;90.60;38.90;;;;;;;1.15;79.60;97546.72;125324;1095;65175;-84
2020/12/12 05:13:52;;;;;;;106.50;42.93;;;;;;;1.12;78.72;97544.25;125522;1095;65015;-83
2020/12/12 05:16:19;;;;;;;93.23;39.60;;;;;;;1.10;79.00;97540.88;125573;1095;65272;-82
2020/12/12 05:18:46;;;;;;;89.17;40.73;;;;;;;1.14;79.06;97545.00;125503;1095;65345;-86
2020/12/12 05:21:12;;;;;;;88.83;41.67;;;;;;;1.16;79.60;97552.83;125581;1095;65245;-86
2020/12/12 05:23:39;;;;;;;97.60;42.43;;;;;;;1.15;79.42;97553.77;125475;1095;65137;-83
2020/12/12 05:26:06;;;;;;;94.27;40.27;;;;;;;1.10;79.43;97554.02;125570;1095;65229;-83
2020/12/12 05:28:33;;;;;;;82.80;39.50;;;;;;;1.05;78.69;97551.65;125533;1095;65154;-84
2020/12/12 05:30:59;;;;;;;100.50;42.73;;;;;;;1.00;79.11;97556.31;125521;1096;65535;-84
2020/12/12 05:33:26;;;;;;;98.27;42.03;;;;;;;0.99;79.10;97561.67;125329;1095;65182;-84
2020/12/12 05:35:53;;;;;;;100.03;42.10;;;;;;;0.99;79.01;97567.77;125348;1096;65184;-86
2020/12/12 05:38:20;;;;;;;100.07;40.47;;;;;;;0.97;78.82;97567.02;125519;1095;65600;-84
2020/12/12 05:40:53;;;;;;;94.00;41.43;;;;;;;0.97;79.37;97566.18;125492;1095;65089;-84
2020/12/12 05:43:19;;;;;;;109.17;46.23;;;;;;;1.03;79.49;97560.57;125547;1095;65210;-84
2020/12/12 05:45:45;;;;;;;94.87;41.00;;;;;;;1.01;79.39;97559.80;125586;1095;65137;-86
2020/12/12 05:48:12;;;;;;;89.37;40.23;;;;;;;1.02;78.85;97558.88;125525;1095;65154;-84
2020/12/12 05:50:39;;;;;;;92.25;39.50;;;;;;;0.98;78.94;97560.83;125522;1095;65621;-84
2020/12/12 05:53:06;;;;;;;92.10;38.47;;;;;;;0.96;79.24;97559.23;125506;1095;65232;-86
2020/12/12 05:55:34;;;;;;;83.73;38.00;;;;;;;0.96;79.43;97564.49;125533;1096;65098;-84
2020/12/12 05:58:01;;;;;;;83.00;38.07;;;;;;;0.97;79.50;97558.30;125525;1096;65166;-83
2020/12/12 06:00:30;;;;;;;77.77;35.80;;;;;;;0.96;79.30;97561.86;125531;1095;65198;-83
2020/12/12 06:03:16;;;;;;;83.43;37.37;;;;;;;0.97;79.38;97558.30;125612;1095;65166;-83
2020/12/12 06:05:48;;;;;;;86.17;37.57;;;;;;;0.95;79.27;97553.10;125503;1095;65201;-84
2020/12/12 06:08:30;;;;;;;90.15;38.75;;;;;;;0.94;79.56;97550.57;125465;1095;65313;-88
2020/12/12 06:11:03;;;;;;;90.93;41.40;;;;;;;0.93;79.74;97549.72;125571;1095;65184;-83
2020/12/12 06:13:35;;;;;;;83.77;38.13;;;;;;;0.92;79.40;97553.29;125322;1096;65134;-85
2020/12/12 06:16:04;;;;;;;86.90;37.93;;;;;;;0.87;79.34;97550.08;125399;1096;65189;-84
2020/12/12 06:18:51;;;;;;;76.73;35.03;;;;;;;0.87;79.01;97547.45;125566;1095;65127;-86
2020/12/12 06:21:22;;;;;;;84.57;36.37;;;;;;;0.92;79.10;97552.45;125510;1095;65301;-84
2020/12/12 06:23:49;;;;;;;88.50;39.10;;;;;;;0.89;79.80;97549.98;125303;1096;65128;-85
2020/12/12 06:26:25;;;;;;;87.17;40.10;;;;;;;0.87;79.30;97551.86;125577;1095;65237;-82
2020/12/12 06:28:53;;;;;;;82.10;40.23;;;;;;;0.84;79.06;97554.67;125532;1095;65157;-82
2020/12/12 06:31:20;;;;;;;88.85;39.15;;;;;;;0.83;79.17;97560.84;125512;1095;65124;-85
2020/12/12 06:33:50;;;;;;;84.85;36.50;;;;;;;0.84;79.89;97557.30;125296;1096;65358;-84
2020/12/12 06:36:28;;;;;;;82.20;37.10;;;;;;;0.87;79.87;97565.00;125553;1095;65156;-83
2020/12/12 06:39:19;;;;;;;78.00;35.27;;;;;;;0.87;79.71;97565.00;125326;1096;65147;-84
2020/12/12 06:41:48;;;;;;;75.27;35.80;;;;;;;0.91;79.90;97570.00;125311;1096;65252;-82
2020/12/12 06:44:41;;;;;;;82.57;36.07;;;;;;;0.90;79.45;97570.94;125618;1095;65121;-84
2020/12/12 06:47:08;;;;;;;85.03;37.70;;;;;;;0.83;79.17;97568.72;125516;1095;65133;-82
2020/12/12 06:49:36;;;;;;;88.17;39.90;;;;;;;0.75;79.06;97575.26;125288;1096;65160;-86
2020/12/12 06:52:03;;;;;;;92.43;40.50;;;;;;;0.70;79.76;97569.44;125550;1095;65166;-82
2020/12/12 06:54:29;;;;;;;83.80;38.70;;;;;;;0.66;79.37;97565.28;125528;1095;65643;-83
2020/12/12 06:56:56;;;;;;;92.93;37.30;;;;;;;0.68;79.22;97575.70;125277;1095;65182;-84
2020/12/12 06:59:22;;;;;;;86.77;36.67;;;;;;;0.71;79.30;97576.38;125257;1096;65191;-86
2020/12/12 07:01:57;;;;;;;80.20;36.80;;;;;;;0.77;79.80;97578.67;125499;1095;65235;-83
2020/12/12 07:04:32;;;;;;;104.43;46.65;;;;;;;0.80;79.30;97583.73;125283;1095;65220;-84
2020/12/12 07:07:06;;;;;;;123.70;52.15;;;;;;;0.81;79.59;97582.80;125334;1095;65242;-83
2020/12/12 07:09:37;;;;;;;115.00;48.40;;;;;;;0.81;79.33;97588.05;125572;1096;65128;-85
2020/12/12 07:12:05;;;;;;;111.07;44.10;;;;;;;0.79;79.26;97584.67;125532;1095;65333;-87
2020/12/12 07:14:32;;;;;;;108.00;45.73;;;;;;;0.81;79.39;97582.80;125315;1095;65121;-84
2020/12/12 07:17:00;;;;;;;105.33;42.67;;;;;;;0.87;79.60;97586.02;125372;1095;65198;-83
2020/12/12 07:19:34;;;;;;;88.17;39.70;;;;;;;0.95;79.69;97591.69;125643;1095;65262;-82
2020/12/12 07:22:02;;;;;;;82.10;36.20;;;;;;;1.01;79.60;97589.55;125520;1095;65213;-84
2020/12/12 07:24:30;;;;;;;78.23;35.83;;;;;;;1.09;79.29;97589.14;125357;1096;65172;-84
2020/12/12 07:26:58;;;;;;;84.53;37.57;;;;;;;1.14;79.40;97589.70;125535;1096;65259;-83
2020/12/12 07:29:26;;;;;;;86.03;37.20;;;;;;;1.19;79.45;97586.81;125517;1095;65266;-86
2020/12/12 07:31:52;;;;;;;82.93;35.97;;;;;;;1.16;79.71;97582.59;125334;1096;65336;-82
2020/12/12 07:34:23;;;;;;;86.87;38.00;;;;;;;1.11;78.92;97579.38;125533;1095;65147;-84
2020/12/12 07:37:17;;;;;;;141.13;50.17;;;;;;;1.06;78.95;97586.67;125522;1095;65121;-85
2020/12/12 07:39:44;;;;;;;138.47;53.03;;;;;;;1.07;79.44;97588.36;125497;1095;65204;-87
2020/12/12 07:42:12;;;;;;;126.07;51.10;;;;;;;1.08;79.11;97588.30;125258;1095;65620;-83
2020/12/12 07:44:41;;;;;;;112.37;46.13;;;;;;;1.09;79.04;97586.52;125297;1095;65200;-84
2020/12/12 07:47:12;;;;;;;102.70;44.50;;;;;;;1.10;79.23;97592.61;125354;1095;65246;-83
2020/12/12 07:49:39;;;;;;;123.33;49.43;;;;;;;1.08;79.51;97585.67;125479;1095;65314;-84
2020/12/12 07:52:08;;;;;;;103.10;47.63;;;;;;;1.11;79.76;97595.15;125561;1095;65281;-87
2020/12/12 07:54:49;;;;;;;101.90;43.50;;;;;;;1.15;79.58;97596.68;125840;1095;65184;-83
2020/12/12 07:57:16;;;;;;;91.43;39.60;;;;;;;1.18;79.20;97596.48;125286;1095;65225;-84
2020/12/12 07:59:43;;;;;;;82.23;37.40;;;;;;;1.19;79.56;97600.80;125440;1095;65173;-81
2020/12/12 08:02:12;;;;;;;81.83;36.90;;;;;;;1.26;79.92;97607.41;126011;1095;65326;-84
2020/12/12 08:04:39;;;;;;;75.93;34.57;;;;;;;1.31;78.96;97600.09;125418;1097;65254;-83
2020/12/12 08:07:20;;;;;;;89.00;38.60;;;;;;;1.32;79.32;97603.58;125307;1096;65150;-83
2020/12/12 08:09:52;;;;;;;82.47;37.60;;;;;;;1.32;79.32;97609.67;125671;1095;65227;-83
2020/12/12 08:12:33;;;;;;;82.00;39.80;;;;;;;1.32;79.37;97595.69;125310;1096;65141;-83
2020/12/12 08:15:18;;;;;;;94.23;40.00;;;;;;;1.33;79.52;97600.00;125315;1095;65374;-84
2020/12/12 08:17:45;;;;;;;105.75;46.30;;;;;;;1.28;79.53;97605.55;125575;1095;65350;-84
2020/12/12 08:20:14;;;;;;;106.27;44.73;;;;;;;1.28;79.52;97609.97;125442;1096;65208;-81
2020/12/12 08:22:41;;;;;;;86.65;38.00;;;;;;;1.34;79.54;97601.72;125450;1096;65224;-82
2020/12/12 08:25:08;;;;;;;87.60;37.43;;;;;;;1.43;79.49;97608.22;125269;1096;65114;-84
2020/12/12 08:27:35;;;;;;;93.07;41.30;;;;;;;1.49;79.43;97605.23;125331;1096;65312;-84
2020/12/12 08:30:03;;;;;;;102.60;46.05;;;;;;;1.56;79.41;97606.56;125257;1090;65133;-84
2020/12/12 08:32:36;;;;;;;99.17;44.40;;;;;;;1.62;79.89;97607.05;125572;1096;65679;-83
2020/12/12 08:35:24;;;;;;;98.60;41.67;;;;;;;1.68;79.63;97611.11;125543;1095;65262;-83
2020/12/12 08:38:06;;;;;;;93.27;39.00;;;;;;;1.66;79.61;97615.63;125531;1095;65220;-84
2020/12/12 08:40:44;;;;;;;83.80;36.27;;;;;;;1.62;79.37;97611.47;125232;1095;65239;-84
2020/12/12 08:43:13;;;;;;;97.80;38.13;;;;;;;1.59;79.15;97616.89;125298;1096;65357;-84
2020/12/12 08:45:42;;;;;;;85.03;36.20;;;;;;;1.60;79.46;97619.45;125526;1095;65568;-84
2020/12/12 08:48:09;;;;;;;82.60;34.80;;;;;;;1.62;79.51;97632.52;125902;1095;65323;-85
2020/12/12 08:50:48;;;;;;;80.00;34.45;;;;;;;1.67;79.61;97629.63;125566;1095;65136;-84
2020/12/12 08:53:28;;;;;;;87.43;35.87;;;;;;;1.66;79.18;97628.78;125512;1095;65303;-85
2020/12/12 08:56:01;;;;;;;90.97;37.70;;;;;;;1.62;79.21;97628.09;125529;1095;65302;-83
2020/12/12 08:58:38;;;;;;;93.03;40.07;;;;;;;1.63;79.19;97624.52;125504;1095;65166;-83
2020/12/12 09:01:19;;;;;;;83.80;37.40;;;;;;;1.63;79.39;97621.05;125769;1095;65246;-83
2020/12/12 09:03:57;;;;;;;94.03;38.43;;;;;;;1.68;79.72;97626.05;125286;1095;65224;-83
2020/12/12 09:06:30;;;;;;;102.83;39.37;;;;;;;1.68;79.65;97620.79;125495;1095;65339;-84
2020/12/12 09:09:09;;;;;;;86.93;36.67;;;;;;;1.67;79.37;97621.73;125550;1095;65262;-84
2020/12/12 09:11:37;;;;;;;88.27;37.60;;;;;;;1.67;79.93;97622.58;125247;1096;65435;-85
2020/12/12 09:14:04;;;;;;;81.83;36.50;;;;;;;1.73;79.52;97616.95;125632;1095;65156;-85
2020/12/12 09:16:31;;;;;;;83.83;35.43;;;;;;;1.80;79.91;97612.16;125834;1095;65144;-86
2020/12/12 09:18:57;;;;;;;91.83;36.97;;;;;;;1.84;79.45;97611.87;125582;1095;65117;-82
2020/12/12 09:21:24;;;;;;;88.60;38.67;;;;;;;1.89;79.49;97619.50;125424;1096;65171;-82
2020/12/12 09:23:51;;;;;;;106.63;41.80;;;;;;;1.89;79.59;97620.34;125471;1095;65176;-86
2020/12/12 09:26:20;;;;;;;97.37;38.00;;;;;;;1.87;79.41;97624.86;125589;1096;65136;-83
2020/12/12 09:28:46;;;;;;;93.67;38.23;;;;;;;1.84;79.40;97617.13;125606;1095;65254;-88
2020/12/12 09:31:15;;;;;;;88.57;37.77;;;;;;;1.85;79.37;97626.75;125502;1095;65290;-83
2020/12/12 09:33:42;;;;;;;95.30;38.90;;;;;;;1.85;79.30;97621.48;125880;1095;65112;-84
2020/12/12 09:36:08;;;;;;;109.67;44.13;;;;;;;1.85;79.58;97626.75;125333;1096;65152;-83
2020/12/12 09:38:35;;;;;;;105.75;44.55;;;;;;;1.83;79.26;97630.39;125308;1096;65155;-83
2020/12/12 09:41:01;;;;;;;117.10;47.20;;;;;;;1.80;79.43;97627.95;125566;1095;65242;-83
2020/12/12 09:43:28;;;;;;;122.57;47.40;;;;;;;1.79;79.68;97628.90;125317;1095;65252;-83
2020/12/12 09:45:54;;;;;;;131.60;48.07;;;;;;;1.76;79.23;97624.64;125664;1096;65194;-84
2020/12/12 09:48:21;;;;;;;142.80;51.17;;;;;;;1.71;79.22;97621.44;125505;1096;65271;-85
2020/12/12 09:50:47;;;;;;;145.90;52.90;;;;;;;1.68;79.42;97629.52;125631;1095;65489;-84
2020/12/12 09:53:13;;;;;;;140.45;49.50;;;;;;;1.62;79.58;97635.15;125299;1095;65185;-88
2020/12/12 09:55:41;;;;;;;137.63;50.40;;;;;;;1.59;79.11;97628.30;125337;1096;65310;-82
2020/12/12 09:58:08;;;;;;;125.33;46.07;;;;;;;1.61;79.87;97630.83;125317;1095;65146;-84
2020/12/12 10:00:36;;;;;;;134.17;48.83;;;;;;;1.66;79.58;97627.94;125873;1095;65198;-84
2020/12/12 10:03:05;;;;;;;147.60;53.60;;;;;;;1.77;80.01;97630.75;125313;1096;65229;-85
2020/12/12 10:05:33;;;;;;;140.20;52.55;;;;;;;1.86;79.76;97638.13;125583;1095;65156;-87
2020/12/12 10:08:01;;;;;;;139.27;52.00;;;;;;;1.87;79.84;97632.76;125303;1096;65361;-84
2020/12/12 10:10:29;;;;;;;147.45;55.05;;;;;;;1.93;79.56;97636.81;125600;1095;65156;-84
2020/12/12 10:12:56;;;;;;;135.93;50.27;;;;;;;1.95;79.52;97639.34;125303;1095;65130;-82
2020/12/12 10:15:23;;;;;;;126.40;46.97;;;;;;;1.99;79.48;97636.45;125316;1096;65159;-83
2020/12/12 10:17:50;;;;;;;126.93;45.20;;;;;;;2.03;79.73;97632.67;125561;1095;65153;-84
2020/12/12 10:20:17;;;;;;;115.80;44.47;;;;;;;2.07;79.82;97628.08;125523;1095;65147;-84
2020/12/12 10:22:45;;;;;;;115.70;43.40;;;;;;;2.12;79.65;97629.50;125504;1095;65144;-82
2020/12/12 10:25:12;;;;;;;113.03;40.13;;;;;;;2.20;79.61;97634.30;125251;1096;65203;-83
2020/12/12 10:27:40;;;;;;;122.60;48.90;;;;;;;2.21;79.60;97635.14;125656;1096;65281;-83
2020/12/12 10:30:09;;;;;;;130.93;47.30;;;;;;;2.20;79.30;97636.08;125554;1095;65140;-85
2020/12/12 10:32:36;;;;;;;121.27;45.53;;;;;;;2.17;79.53;97642.40;125569;1095;65306;-84
2020/12/12 10:35:07;;;;;;;122.20;45.77;;;;;;;2.10;79.41;97630.52;125567;1095;65246;-84
2020/12/12 10:37:34;;;;;;;130.43;48.17;;;;;;;2.07;79.73;97631.56;125503;1096;65229;-83
2020/12/12 10:42:33;;;;;;;147.10;49.87;;;;;;;2.11;79.59;97645.41;125400;1096;65610;-87
2020/12/12 10:45:00;;;;;;;130.97;46.67;;;;;;;2.08;79.83;97643.78;125544;1095;65284;-84
2020/12/12 10:47:26;;;;;;;131.75;45.43;;;;;;;2.07;79.76;97639.45;125536;1095;65150;-85
2020/12/12 10:49:53;;;;;;;114.80;42.50;;;;;;;2.11;79.98;97643.61;125327;1095;65206;-85
2020/12/12 10:52:19;;;;;;;138.50;48.10;;;;;;;2.15;79.81;97647.73;125330;1096;65521;-83
2020/12/12 10:54:48;;;;;;;133.43;47.70;;;;;;;2.14;80.06;97647.83;125859;1095;65319;-85
2020/12/12 10:57:14;;;;;;;132.07;50.73;;;;;;;2.13;80.14;97639.09;125519;1096;65250;-84
2020/12/12 10:59:44;;;;;;;134.73;50.13;;;;;;;2.15;79.85;97641.62;125339;1096;65150;-85
2020/12/12 11:02:14;;;;;;;137.33;50.73;;;;;;;2.10;79.59;97647.19;125580;1095;65669;-82
2020/12/12 11:04:42;;;;;;;135.23;45.63;;;;;;;2.06;79.56;97637.77;125286;1096;65253;-84
2020/12/12 11:07:11;;;;;;;126.53;48.73;;;;;;;2.01;79.71;97644.25;125776;1096;65181;-82
2020/12/12 11:09:39;;;;;;;124.23;45.80;;;;;;;1.99;79.61;97636.45;125260;1095;65255;-83
2020/12/12 11:12:06;;;;;;;130.50;46.80;;;;;;;2.00;79.71;97643.41;125323;1096;65153;-83
2020/12/12 11:14:33;;;;;;;116.97;45.27;;;;;;;2.02;79.90;97638.04;125583;1095;65149;-86
2020/12/12 11:17:02;;;;;;;117.80;46.27;;;;;;;2.06;79.91;97644.83;125412;1096;65118;-84
2020/12/12 11:19:29;;;;;;;136.23;47.63;;;;;;;2.08;79.99;97642.94;125510;1095;65252;-82
2020/12/12 11:21:56;;;;;;;138.67;50.73;;;;;;;2.10;79.84;97644.56;125496;1095;65214;-83
2020/12/12 11:24:24;;;;;;;148.03;53.87;;;;;;;2.10;79.79;97633.14;125633;1096;65272;-84
2020/12/12 11:26:52;;;;;;;134.50;50.97;;;;;;;2.10;79.92;97638.41;125291;1096;65156;-84